Racecast

Aubrey Pakulski

Temperance Bedford (MI) · 10 · SECMI D1MONROE · Compare head to head

Athlete rating 98.0 2025 XC season
Best race 114.9 XC
Races 38
Seasons 4 2023 — 2026

RankedNation #84433·MI #4940·MI D1 #2706·SEC #242·Team #75 ?

Cross Country

2025 XC 94.9

Temperance Bedford (MI) · Grade 10

Date Meet Event Result Place Rating Difficulty PR/SR Flags
2025-09-27 Lake Erie Metro Park OFFICIAL 5000m 28:43.1 38th · 7th on team 95.3 +0.055 CSR RSR
2025-09-09 Willow Metropark OFFICIAL 5000m 28:38.4 90th · 3rd on team 94.6 +0.048 SR CSR RSR

2024 XC 108.1

Temperance Bedford (MI) · Grade 9

Date Meet Event Result Place Rating Difficulty PR/SR Flags
2024-10-26 Lake Erie Metro Park OFFICIAL 5000m 23:43.7 41st · 5th on team 114.9 +0.055 ★PR ★CR ★R SR CSR RSR
2024-10-17 Hudson Mills Metropark - OFFICIAL 5000m 24:24.16 63rd · 6th on team 110.0 +0.036 PR ★CR SR CSR
2024-10-12 Munson Park 5000m 24:45 25th · 5th on team 110.3 +0.054 PR ★CR SR CSR
2024-10-05 Portage West MS 5000m 26:10.6 191st · 4th on team 102.8 +0.038 ★CR CSR
2024-09-28 Lake Erie Metro Park OFFICIAL 5000m 24:52 6th · 1st on team 109.7 +0.055 PR CR SR CSR
2024-09-24 Pioneer HS 5000m 24:54.2 32nd · 3rd on team 111.1 +0.067 PR ★CR R SR CSR RSR
2024-09-10 Willow Metropark OFFICIAL 5000m 25:45.6 34th · 2nd on team 105.7 +0.048 PR ★CR R SR CSR RSR
2024-08-23 Ford Field/EE Ice Arena(LIVONIA) OFFICIAL 5000m 27:32 49th · 4th on team 100.7 +0.070 PR ★CR R SR CSR RSR

Track & Field

2026 TF 96.9

Temperance Bedford (MI) · Grade 10

Date Meet Event Result Place Rating Difficulty PR/SR Flags
2026-04-29 Knight Classic JV Invitational 800m 3:01.95 7th · 2nd on team 99.8 -0.040 ★PR SR RSR
2026-04-28 SEC-HS: Bedford @ Monroe 1600m 6:53.52 7th · 3rd on team 98.7 -0.032
2026-04-20 SEC-HS: Bedford @ Pioneer 1600m 7:06.54 11th · 2nd on team 96.1 -0.028
2026-04-17 6th Toledo St. John's Jesuit Titan Invite 1600m 6:58.1 19th · 2nd on team 96.6 -0.042
2026-04-14 SEC-HS: Huron & Saline at Bedford 800m 3:10.41 10th · 4th on team 96.1 -0.033 PR SR
2026-04-14 SEC-HS: Huron & Saline at Bedford 1600m 6:56.07 18th · 6th on team 98.0 -0.033
2026-04-07 SEC-HS: Bedford & Dexter @ Skyline 1600m 6:51.05 11th · 3rd on team 99.2 -0.033 ★PR SR RSR
2026-04-07 SEC-HS: Bedford & Dexter @ Skyline 800m 3:19.41 20th · 4th on team 91.7 -0.033
2026-03-26 Lincoln Indoor Invite 800m 3:10.9 37th · 3rd on team 95.7 -0.035 PR SR RSR

2024 TF

Temperance Bedford (MI) · Grade 8

Date Meet Event Result Place Rating Difficulty PR/SR Flags
2024-05-14 SEC-MS Championship (Pinc) 70m 10.9 25th · 3rd on team -0.033 ★PR SR
2024-05-10 SEC-MS: Monroe at Bedford lj 9' 11.5 -0.033
2024-05-10 SEC-MS: Monroe at Bedford 200m 32.45 2nd · 2nd on team -0.033 ★PR SR
2024-05-10 SEC-MS: Monroe at Bedford 70m 11.05 3rd · 2nd on team -0.033 PR SR
2024-04-25 SEC MS: Saline @ Bedford lj 10' 1 -0.033
2024-04-25 SEC MS: Saline @ Bedford 100m 16.76 18th · 7th on team -0.033 ★PR SR
2024-04-25 SEC MS: Saline @ Bedford 200m 34.26 16th · 7th on team -0.033 PR SR

2023 TF

Temperance Bedford (MI) · Grade 7

Date Meet Event Result Place Rating Difficulty PR/SR Flags
2023-05-15 SEC-MS: Lincoln & Bedford @ Monroe lj 7' 8.5 -0.032
2023-05-15 SEC-MS: Lincoln & Bedford @ Monroe 200m 36.83 31st · 12th on team -0.032
2023-05-15 SEC-MS: Lincoln & Bedford @ Monroe 70m 12.17 35th · 18th on team -0.032
2023-05-08 SEC-MS Chelsea & Ypsi @Bedford lj 8-6.0 -0.033
2023-05-08 SEC-MS Chelsea & Ypsi @Bedford 100m 17.54 27th · 10th on team -0.033
2023-05-08 SEC-MS Chelsea & Ypsi @Bedford 70m 12.94 48th · 28th on team -0.033
2023-05-04 SEC-MS Bedford at Saline lj 8' 9.5 -0.038
2023-05-04 SEC-MS Bedford at Saline 100m 17.14 49th · 19th on team -0.038 PR SR
2023-05-04 SEC-MS Bedford at Saline 200m 37.14 33rd · 19th on team -0.038
2023-04-27 SEC-MS: Bedford @ Pinckney lj 10' 2 -0.032
2023-04-27 SEC-MS: Bedford @ Pinckney 200m 36.04 25th · 13th on team -0.032 PR SR
2023-04-27 SEC-MS: Bedford @ Pinckney 70m 11.94 20th · 14th on team -0.032 PR SR